sensor_id;sensor_type;location;lat;lon;timestamp;P1;durP1;ratioP1;P2;durP2;ratioP2
35917;SDS011;22011;59.912;30.300;2023-04-20T00:00:59;23.83;;;9.00;;
35917;SDS011;22011;59.912;30.300;2023-04-20T00:03:27;20.02;;;8.57;;
35917;SDS011;22011;59.912;30.300;2023-04-20T00:05:54;24.05;;;7.07;;
35917;SDS011;22011;59.912;30.300;2023-04-20T00:08:22;15.32;;;6.90;;
35917;SDS011;22011;59.912;30.300;2023-04-20T00:10:51;13.60;;;6.03;;
35917;SDS011;22011;59.912;30.300;2023-04-20T00:13:18;25.40;;;6.30;;
35917;SDS011;22011;59.912;30.300;2023-04-20T00:15:46;12.32;;;4.57;;
35917;SDS011;22011;59.912;30.300;2023-04-20T00:18:13;12.23;;;5.13;;
35917;SDS011;22011;59.912;30.300;2023-04-20T00:20:41;14.65;;;4.85;;
35917;SDS011;22011;59.912;30.300;2023-04-20T00:23:08;16.70;;;5.22;;
35917;SDS011;22011;59.912;30.300;2023-04-20T00:25:36;10.00;;;4.25;;
35917;SDS011;22011;59.912;30.300;2023-04-20T00:28:05;12.48;;;4.28;;
35917;SDS011;22011;59.912;30.300;2023-04-20T00:30:32;10.95;;;4.35;;
35917;SDS011;22011;59.912;30.300;2023-04-20T00:33:01;10.70;;;4.28;;
35917;SDS011;22011;59.912;30.300;2023-04-20T00:35:29;10.80;;;4.75;;
35917;SDS011;22011;59.912;30.300;2023-04-20T00:37:56;14.50;;;4.07;;
35917;SDS011;22011;59.912;30.300;2023-04-20T00:40:24;14.18;;;4.20;;
35917;SDS011;22011;59.912;30.300;2023-04-20T00:42:52;7.38;;;3.72;;
35917;SDS011;22011;59.912;30.300;2023-04-20T00:45:24;7.38;;;3.95;;
35917;SDS011;22011;59.912;30.300;2023-04-20T00:47:51;5.05;;;3.40;;
35917;SDS011;22011;59.912;30.300;2023-04-20T00:50:20;5.07;;;3.80;;
35917;SDS011;22011;59.912;30.300;2023-04-20T00:52:47;5.10;;;3.47;;
35917;SDS011;22011;59.912;30.300;2023-04-20T00:55:16;6.47;;;3.60;;
35917;SDS011;22011;59.912;30.300;2023-04-20T00:57:44;10.40;;;3.83;;
35917;SDS011;22011;59.912;30.300;2023-04-20T01:00:12;9.93;;;3.75;;
35917;SDS011;22011;59.912;30.300;2023-04-20T01:02:41;5.55;;;3.33;;
35917;SDS011;22011;59.912;30.300;2023-04-20T01:05:08;7.60;;;3.58;;
35917;SDS011;22011;59.912;30.300;2023-04-20T01:07:36;6.78;;;3.55;;
35917;SDS011;22011;59.912;30.300;2023-04-20T01:10:04;8.40;;;3.78;;
35917;SDS011;22011;59.912;30.300;2023-04-20T01:12:33;5.75;;;3.70;;
35917;SDS011;22011;59.912;30.300;2023-04-20T01:15:01;7.30;;;4.07;;
35917;SDS011;22011;59.912;30.300;2023-04-20T01:17:28;5.35;;;3.38;;
35917;SDS011;22011;59.912;30.300;2023-04-20T01:19:57;5.88;;;3.85;;
35917;SDS011;22011;59.912;30.300;2023-04-20T01:22:28;6.68;;;3.85;;
35917;SDS011;22011;59.912;30.300;2023-04-20T01:24:55;10.25;;;3.97;;
35917;SDS011;22011;59.912;30.300;2023-04-20T01:27:23;9.18;;;3.85;;
35917;SDS011;22011;59.912;30.300;2023-04-20T01:29:51;9.90;;;4.00;;
35917;SDS011;22011;59.912;30.300;2023-04-20T01:32:18;10.20;;;3.70;;
35917;SDS011;22011;59.912;30.300;2023-04-20T01:34:46;7.55;;;3.78;;
35917;SDS011;22011;59.912;30.300;2023-04-20T01:37:15;9.85;;;3.75;;
35917;SDS011;22011;59.912;30.300;2023-04-20T01:39:44;14.20;;;4.07;;
35917;SDS011;22011;59.912;30.300;2023-04-20T01:42:11;7.15;;;3.63;;
35917;SDS011;22011;59.912;30.300;2023-04-20T01:44:39;10.70;;;4.13;;
35917;SDS011;22011;59.912;30.300;2023-04-20T01:47:06;7.20;;;4.05;;
35917;SDS011;22011;59.912;30.300;2023-04-20T01:49:34;7.85;;;3.15;;
35917;SDS011;22011;59.912;30.300;2023-04-20T01:52:01;11.50;;;4.57;;
35917;SDS011;22011;59.912;30.300;2023-04-20T01:54:29;11.65;;;3.90;;
35917;SDS011;22011;59.912;30.300;2023-04-20T01:56:57;6.95;;;3.85;;
35917;SDS011;22011;59.912;30.300;2023-04-20T01:59:25;8.68;;;3.67;;
35917;SDS011;22011;59.912;30.300;2023-04-20T02:01:52;11.65;;;3.83;;
35917;SDS011;22011;59.912;30.300;2023-04-20T02:04:20;9.63;;;4.30;;
35917;SDS011;22011;59.912;30.300;2023-04-20T02:06:47;11.57;;;4.03;;
35917;SDS011;22011;59.912;30.300;2023-04-20T02:09:15;7.75;;;3.80;;
35917;SDS011;22011;59.912;30.300;2023-04-20T02:11:42;6.15;;;3.35;;
35917;SDS011;22011;59.912;30.300;2023-04-20T02:14:12;10.60;;;3.30;;
35917;SDS011;22011;59.912;30.300;2023-04-20T02:16:40;10.38;;;3.60;;
35917;SDS011;22011;59.912;30.300;2023-04-20T02:19:08;5.22;;;3.58;;
35917;SDS011;22011;59.912;30.300;2023-04-20T02:21:35;7.70;;;3.28;;
35917;SDS011;22011;59.912;30.300;2023-04-20T02:24:03;6.80;;;3.50;;
35917;SDS011;22011;59.912;30.300;2023-04-20T02:26:31;5.63;;;3.50;;
35917;SDS011;22011;59.912;30.300;2023-04-20T02:28:59;8.00;;;3.50;;
35917;SDS011;22011;59.912;30.300;2023-04-20T02:31:27;5.75;;;3.33;;
35917;SDS011;22011;59.912;30.300;2023-04-20T02:33:55;6.65;;;3.45;;
35917;SDS011;22011;59.912;30.300;2023-04-20T02:36:25;7.38;;;4.00;;
35917;SDS011;22011;59.912;30.300;2023-04-20T02:38:53;5.70;;;3.45;;
35917;SDS011;22011;59.912;30.300;2023-04-20T02:41:20;6.38;;;3.15;;
35917;SDS011;22011;59.912;30.300;2023-04-20T02:43:48;7.80;;;4.07;;
35917;SDS011;22011;59.912;30.300;2023-04-20T02:46:16;7.22;;;3.53;;
35917;SDS011;22011;59.912;30.300;2023-04-20T02:48:45;6.07;;;3.78;;
35917;SDS011;22011;59.912;30.300;2023-04-20T02:51:12;6.00;;;3.17;;
35917;SDS011;22011;59.912;30.300;2023-04-20T02:53:43;5.78;;;3.45;;
35917;SDS011;22011;59.912;30.300;2023-04-20T02:56:22;7.60;;;3.50;;
35917;SDS011;22011;59.912;30.300;2023-04-20T02:58:55;6.20;;;3.55;;
35917;SDS011;22011;59.912;30.300;2023-04-20T03:01:35;9.32;;;3.45;;
35917;SDS011;22011;59.912;30.300;2023-04-20T03:04:19;9.50;;;3.25;;
35917;SDS011;22011;59.912;30.300;2023-04-20T03:06:54;6.07;;;2.97;;
35917;SDS011;22011;59.912;30.300;2023-04-20T03:09:26;6.88;;;3.55;;
35917;SDS011;22011;59.912;30.300;2023-04-20T03:12:06;9.85;;;3.30;;
35917;SDS011;22011;59.912;30.300;2023-04-20T03:14:59;10.68;;;3.53;;
35917;SDS011;22011;59.912;30.300;2023-04-20T03:17:41;8.75;;;3.13;;
35917;SDS011;22011;59.912;30.300;2023-04-20T03:20:11;8.77;;;3.20;;
35917;SDS011;22011;59.912;30.300;2023-04-20T03:22:39;12.48;;;3.60;;
35917;SDS011;22011;59.912;30.300;2023-04-20T03:25:08;6.30;;;3.47;;
35917;SDS011;22011;59.912;30.300;2023-04-20T03:27:56;9.82;;;3.25;;
35917;SDS011;22011;59.912;30.300;2023-04-20T03:30:24;12.80;;;4.40;;
35917;SDS011;22011;59.912;30.300;2023-04-20T03:32:58;6.28;;;2.92;;
35917;SDS011;22011;59.912;30.300;2023-04-20T03:35:27;5.10;;;3.20;;
35917;SDS011;22011;59.912;30.300;2023-04-20T03:37:55;7.20;;;3.65;;
35917;SDS011;22011;59.912;30.300;2023-04-20T03:40:23;9.65;;;2.90;;
35917;SDS011;22011;59.912;30.300;2023-04-20T03:42:50;7.13;;;3.22;;
35917;SDS011;22011;59.912;30.300;2023-04-20T03:45:18;13.77;;;3.75;;
35917;SDS011;22011;59.912;30.300;2023-04-20T03:47:48;5.72;;;3.25;;
35917;SDS011;22011;59.912;30.300;2023-04-20T03:50:15;6.20;;;3.22;;
35917;SDS011;22011;59.912;30.300;2023-04-20T03:52:44;10.77;;;3.67;;
35917;SDS011;22011;59.912;30.300;2023-04-20T03:55:11;10.27;;;4.00;;
35917;SDS011;22011;59.912;30.300;2023-04-20T03:57:44;8.45;;;3.53;;
35917;SDS011;22011;59.912;30.300;2023-04-20T04:00:12;11.82;;;4.13;;
35917;SDS011;22011;59.912;30.300;2023-04-20T04:02:46;10.82;;;4.22;;
35917;SDS011;22011;59.912;30.300;2023-04-20T04:05:21;8.15;;;3.38;;
35917;SDS011;22011;59.912;30.300;2023-04-20T04:07:50;6.32;;;3.10;;
35917;SDS011;22011;59.912;30.300;2023-04-20T04:10:18;10.73;;;3.70;;
35917;SDS011;22011;59.912;30.300;2023-04-20T04:12:45;11.30;;;3.13;;
35917;SDS011;22011;59.912;30.300;2023-04-20T04:15:13;9.90;;;3.83;;
35917;SDS011;22011;59.912;30.300;2023-04-20T04:17:55;7.55;;;3.10;;
35917;SDS011;22011;59.912;30.300;2023-04-20T04:20:22;9.85;;;3.05;;
35917;SDS011;22011;59.912;30.300;2023-04-20T04:22:52;8.77;;;3.85;;
35917;SDS011;22011;59.912;30.300;2023-04-20T04:25:32;7.65;;;3.13;;
35917;SDS011;22011;59.912;30.300;2023-04-20T04:27:59;8.27;;;3.30;;
35917;SDS011;22011;59.912;30.300;2023-04-20T04:30:29;7.07;;;2.92;;
35917;SDS011;22011;59.912;30.300;2023-04-20T04:32:57;6.00;;;3.20;;
35917;SDS011;22011;59.912;30.300;2023-04-20T04:35:26;4.85;;;2.80;;
35917;SDS011;22011;59.912;30.300;2023-04-20T04:37:57;5.10;;;2.90;;
35917;SDS011;22011;59.912;30.300;2023-04-20T04:40:25;6.73;;;2.70;;
35917;SDS011;22011;59.912;30.300;2023-04-20T04:42:55;9.88;;;3.30;;
35917;SDS011;22011;59.912;30.300;2023-04-20T04:45:23;5.68;;;2.85;;
35917;SDS011;22011;59.912;30.300;2023-04-20T04:47:51;4.68;;;2.78;;
35917;SDS011;22011;59.912;30.300;2023-04-20T04:50:19;12.75;;;3.70;;
35917;SDS011;22011;59.912;30.300;2023-04-20T04:52:47;7.35;;;3.60;;
35917;SDS011;22011;59.912;30.300;2023-04-20T04:55:16;7.60;;;3.45;;
35917;SDS011;22011;59.912;30.300;2023-04-20T04:57:43;3.83;;;2.50;;
35917;SDS011;22011;59.912;30.300;2023-04-20T05:00:11;8.48;;;2.63;;
35917;SDS011;22011;59.912;30.300;2023-04-20T05:02:40;6.72;;;2.95;;
35917;SDS011;22011;59.912;30.300;2023-04-20T05:05:08;6.97;;;3.08;;
35917;SDS011;22011;59.912;30.300;2023-04-20T05:07:35;5.18;;;2.92;;
35917;SDS011;22011;59.912;30.300;2023-04-20T05:10:05;5.60;;;3.47;;
35917;SDS011;22011;59.912;30.300;2023-04-20T05:12:35;5.75;;;2.92;;
35917;SDS011;22011;59.912;30.300;2023-04-20T05:15:02;4.63;;;2.72;;
35917;SDS011;22011;59.912;30.300;2023-04-20T05:17:30;4.63;;;2.70;;
35917;SDS011;22011;59.912;30.300;2023-04-20T05:19:58;8.10;;;2.60;;
35917;SDS011;22011;59.912;30.300;2023-04-20T05:22:25;9.45;;;2.90;;
35917;SDS011;22011;59.912;30.300;2023-04-20T05:24:53;7.18;;;3.22;;
35917;SDS011;22011;59.912;30.300;2023-04-20T05:27:20;4.88;;;2.53;;
35917;SDS011;22011;59.912;30.300;2023-04-20T05:29:49;9.15;;;2.50;;
35917;SDS011;22011;59.912;30.300;2023-04-20T05:32:17;5.45;;;2.75;;
35917;SDS011;22011;59.912;30.300;2023-04-20T05:34:44;3.33;;;2.42;;
35917;SDS011;22011;59.912;30.300;2023-04-20T05:37:12;3.80;;;2.53;;
35917;SDS011;22011;59.912;30.300;2023-04-20T05:39:41;8.48;;;2.55;;
35917;SDS011;22011;59.912;30.300;2023-04-20T05:42:08;5.97;;;2.50;;
35917;SDS011;22011;59.912;30.300;2023-04-20T05:44:35;8.23;;;2.53;;
35917;SDS011;22011;59.912;30.300;2023-04-20T05:47:05;7.13;;;2.45;;
35917;SDS011;22011;59.912;30.300;2023-04-20T05:49:33;6.53;;;2.40;;
35917;SDS011;22011;59.912;30.300;2023-04-20T05:52:01;5.75;;;2.13;;
35917;SDS011;22011;59.912;30.300;2023-04-20T05:54:29;10.98;;;2.47;;
35917;SDS011;22011;59.912;30.300;2023-04-20T05:56:56;4.88;;;2.53;;
35917;SDS011;22011;59.912;30.300;2023-04-20T05:59:24;7.72;;;2.70;;
35917;SDS011;22011;59.912;30.300;2023-04-20T06:01:52;7.57;;;3.03;;
35917;SDS011;22011;59.912;30.300;2023-04-20T06:04:21;13.73;;;3.40;;
35917;SDS011;22011;59.912;30.300;2023-04-20T06:06:48;15.52;;;3.20;;
35917;SDS011;22011;59.912;30.300;2023-04-20T06:09:16;10.68;;;3.33;;
35917;SDS011;22011;59.912;30.300;2023-04-20T06:11:44;9.30;;;3.28;;
35917;SDS011;22011;59.912;30.300;2023-04-20T06:14:11;8.23;;;3.47;;
35917;SDS011;22011;59.912;30.300;2023-04-20T06:16:39;16.67;;;3.30;;
35917;SDS011;22011;59.912;30.300;2023-04-20T06:19:07;9.80;;;3.20;;
35917;SDS011;22011;59.912;30.300;2023-04-20T06:21:36;11.43;;;2.75;;
35917;SDS011;22011;59.912;30.300;2023-04-20T06:24:03;8.98;;;3.42;;
35917;SDS011;22011;59.912;30.300;2023-04-20T06:26:31;11.40;;;3.20;;
35917;SDS011;22011;59.912;30.300;2023-04-20T06:28:59;7.40;;;3.45;;
35917;SDS011;22011;59.912;30.300;2023-04-20T06:31:26;11.70;;;3.53;;
35917;SDS011;22011;59.912;30.300;2023-04-20T06:33:54;13.32;;;3.88;;
35917;SDS011;22011;59.912;30.300;2023-04-20T06:36:21;5.43;;;3.50;;
35917;SDS011;22011;59.912;30.300;2023-04-20T06:38:50;16.02;;;3.67;;
35917;SDS011;22011;59.912;30.300;2023-04-20T06:41:19;12.80;;;3.20;;
35917;SDS011;22011;59.912;30.300;2023-04-20T06:43:46;8.95;;;3.53;;
35917;SDS011;22011;59.912;30.300;2023-04-20T06:46:14;11.30;;;3.50;;
35917;SDS011;22011;59.912;30.300;2023-04-20T06:48:41;4.38;;;2.30;;
35917;SDS011;22011;59.912;30.300;2023-04-20T06:51:11;5.10;;;2.30;;
35917;SDS011;22011;59.912;30.300;2023-04-20T06:53:38;6.50;;;2.08;;
35917;SDS011;22011;59.912;30.300;2023-04-20T06:56:07;10.40;;;2.47;;
35917;SDS011;22011;59.912;30.300;2023-04-20T07:01:03;11.82;;;2.28;;
35917;SDS011;22011;59.912;30.300;2023-04-20T07:03:31;8.13;;;2.42;;
35917;SDS011;22011;59.912;30.300;2023-04-20T07:05:58;8.15;;;2.30;;
35917;SDS011;22011;59.912;30.300;2023-04-20T07:08:26;4.97;;;2.20;;
35917;SDS011;22011;59.912;30.300;2023-04-20T07:10:53;5.10;;;2.17;;
35917;SDS011;22011;59.912;30.300;2023-04-20T07:13:22;3.33;;;1.80;;
35917;SDS011;22011;59.912;30.300;2023-04-20T07:15:50;8.07;;;2.63;;
35917;SDS011;22011;59.912;30.300;2023-04-20T07:18:18;4.07;;;2.30;;
35917;SDS011;22011;59.912;30.300;2023-04-20T07:20:45;3.13;;;1.70;;
35917;SDS011;22011;59.912;30.300;2023-04-20T07:23:13;4.50;;;2.33;;
35917;SDS011;22011;59.912;30.300;2023-04-20T07:25:40;6.57;;;2.38;;
35917;SDS011;22011;59.912;30.300;2023-04-20T07:28:08;3.13;;;2.28;;
35917;SDS011;22011;59.912;30.300;2023-04-20T07:30:36;8.27;;;2.15;;
35917;SDS011;22011;59.912;30.300;2023-04-20T07:33:04;6.38;;;2.00;;
35917;SDS011;22011;59.912;30.300;2023-04-20T07:35:33;5.60;;;2.60;;
35917;SDS011;22011;59.912;30.300;2023-04-20T07:38:00;4.40;;;2.10;;
35917;SDS011;22011;59.912;30.300;2023-04-20T07:40:28;7.32;;;2.70;;
35917;SDS011;22011;59.912;30.300;2023-04-20T07:42:55;5.78;;;1.95;;
35917;SDS011;22011;59.912;30.300;2023-04-20T07:45:23;6.95;;;1.98;;
35917;SDS011;22011;59.912;30.300;2023-04-20T07:47:52;5.03;;;1.92;;
35917;SDS011;22011;59.912;30.300;2023-04-20T07:50:20;10.75;;;1.85;;
35917;SDS011;22011;59.912;30.300;2023-04-20T07:52:47;5.43;;;1.60;;
35917;SDS011;22011;59.912;30.300;2023-04-20T07:55:15;6.35;;;1.90;;
35917;SDS011;22011;59.912;30.300;2023-04-20T07:57:42;2.17;;;1.63;;
35917;SDS011;22011;59.912;30.300;2023-04-20T08:00:11;3.28;;;1.30;;
35917;SDS011;22011;59.912;30.300;2023-04-20T08:02:39;5.20;;;2.08;;
35917;SDS011;22011;59.912;30.300;2023-04-20T08:05:08;4.47;;;1.85;;
35917;SDS011;22011;59.912;30.300;2023-04-20T08:07:36;9.15;;;1.90;;
35917;SDS011;22011;59.912;30.300;2023-04-20T08:10:04;9.65;;;2.00;;
35917;SDS011;22011;59.912;30.300;2023-04-20T08:12:32;7.40;;;1.60;;
35917;SDS011;22011;59.912;30.300;2023-04-20T08:14:59;3.78;;;1.75;;
35917;SDS011;22011;59.912;30.300;2023-04-20T08:17:31;2.75;;;1.25;;
35917;SDS011;22011;59.912;30.300;2023-04-20T08:19:58;21.65;;;2.13;;
35917;SDS011;22011;59.912;30.300;2023-04-20T08:22:27;5.43;;;1.50;;
35917;SDS011;22011;59.912;30.300;2023-04-20T08:24:55;8.50;;;1.05;;
35917;SDS011;22011;59.912;30.300;2023-04-20T08:27:23;10.02;;;1.55;;
35917;SDS011;22011;59.912;30.300;2023-04-20T08:29:50;2.00;;;1.00;;
35917;SDS011;22011;59.912;30.300;2023-04-20T08:32:18;7.47;;;1.52;;
35917;SDS011;22011;59.912;30.300;2023-04-20T08:34:47;19.20;;;1.73;;
35917;SDS011;22011;59.912;30.300;2023-04-20T08:37:15;5.63;;;1.10;;
35917;SDS011;22011;59.912;30.300;2023-04-20T08:39:43;2.13;;;0.90;;
35917;SDS011;22011;59.912;30.300;2023-04-20T08:42:11;2.10;;;0.95;;
35917;SDS011;22011;59.912;30.300;2023-04-20T08:44:39;2.78;;;1.15;;
35917;SDS011;22011;59.912;30.300;2023-04-20T08:47:07;3.30;;;0.90;;
35917;SDS011;22011;59.912;30.300;2023-04-20T08:49:35;2.15;;;1.00;;
35917;SDS011;22011;59.912;30.300;2023-04-20T08:52:04;2.80;;;1.10;;
35917;SDS011;22011;59.912;30.300;2023-04-20T08:54:32;3.58;;;0.68;;
35917;SDS011;22011;59.912;30.300;2023-04-20T08:57:01;6.80;;;1.08;;
35917;SDS011;22011;59.912;30.300;2023-04-20T08:59:28;5.07;;;0.80;;
35917;SDS011;22011;59.912;30.300;2023-04-20T09:02:06;5.30;;;1.02;;
35917;SDS011;22011;59.912;30.300;2023-04-20T09:04:35;8.77;;;0.95;;
35917;SDS011;22011;59.912;30.300;2023-04-20T09:07:02;1.25;;;0.82;;
35917;SDS011;22011;59.912;30.300;2023-04-20T09:09:30;3.60;;;1.02;;
35917;SDS011;22011;59.912;30.300;2023-04-20T09:11:59;5.28;;;0.82;;
35917;SDS011;22011;59.912;30.300;2023-04-20T09:16:56;2.92;;;0.70;;
35917;SDS011;22011;59.912;30.300;2023-04-20T09:19:27;7.88;;;0.70;;
35917;SDS011;22011;59.912;30.300;2023-04-20T09:21:57;3.25;;;1.20;;
35917;SDS011;22011;59.912;30.300;2023-04-20T09:24:29;2.55;;;0.50;;
35917;SDS011;22011;59.912;30.300;2023-04-20T09:26:57;1.85;;;0.68;;
35917;SDS011;22011;59.912;30.300;2023-04-20T09:29:27;3.35;;;0.80;;
35917;SDS011;22011;59.912;30.300;2023-04-20T09:31:55;2.35;;;0.60;;
35917;SDS011;22011;59.912;30.300;2023-04-20T09:34:22;3.95;;;1.13;;
35917;SDS011;22011;59.912;30.300;2023-04-20T09:36:50;4.50;;;0.73;;
35917;SDS011;22011;59.912;30.300;2023-04-20T09:41:49;4.03;;;0.82;;
35917;SDS011;22011;59.912;30.300;2023-04-20T09:44:17;3.13;;;0.82;;
35917;SDS011;22011;59.912;30.300;2023-04-20T09:46:47;13.73;;;1.33;;
35917;SDS011;22011;59.912;30.300;2023-04-20T09:49:14;4.05;;;0.93;;
35917;SDS011;22011;59.912;30.300;2023-04-20T09:51:42;4.05;;;0.80;;
35917;SDS011;22011;59.912;30.300;2023-04-20T09:54:11;2.53;;;0.80;;
35917;SDS011;22011;59.912;30.300;2023-04-20T09:56:39;4.78;;;1.10;;
35917;SDS011;22011;59.912;30.300;2023-04-20T09:59:07;5.85;;;1.13;;
35917;SDS011;22011;59.912;30.300;2023-04-20T10:01:34;2.28;;;1.10;;
35917;SDS011;22011;59.912;30.300;2023-04-20T10:04:06;8.20;;;1.00;;
35917;SDS011;22011;59.912;30.300;2023-04-20T10:06:35;10.23;;;1.88;;
35917;SDS011;22011;59.912;30.300;2023-04-20T10:09:04;5.78;;;0.70;;
35917;SDS011;22011;59.912;30.300;2023-04-20T10:11:34;4.13;;;0.77;;
35917;SDS011;22011;59.912;30.300;2023-04-20T10:14:13;0.95;;;0.50;;
35917;SDS011;22011;59.912;30.300;2023-04-20T10:16:42;6.65;;;0.80;;
35917;SDS011;22011;59.912;30.300;2023-04-20T10:19:11;4.47;;;0.77;;
35917;SDS011;22011;59.912;30.300;2023-04-20T10:21:45;2.27;;;0.80;;
35917;SDS011;22011;59.912;30.300;2023-04-20T10:24:14;3.38;;;0.88;;
35917;SDS011;22011;59.912;30.300;2023-04-20T10:26:42;5.20;;;1.15;;
35917;SDS011;22011;59.912;30.300;2023-04-20T10:29:21;5.95;;;0.80;;
35917;SDS011;22011;59.912;30.300;2023-04-20T10:31:49;5.97;;;0.70;;
35917;SDS011;22011;59.912;30.300;2023-04-20T10:34:29;1.27;;;0.75;;
35917;SDS011;22011;59.912;30.300;2023-04-20T10:37:06;2.05;;;0.60;;
35917;SDS011;22011;59.912;30.300;2023-04-20T10:39:34;2.38;;;0.82;;
35917;SDS011;22011;59.912;30.300;2023-04-20T10:42:03;3.35;;;1.08;;
35917;SDS011;22011;59.912;30.300;2023-04-20T10:44:31;2.03;;;0.75;;
35917;SDS011;22011;59.912;30.300;2023-04-20T10:47:00;6.10;;;1.20;;
35917;SDS011;22011;59.912;30.300;2023-04-20T10:49:29;7.55;;;0.93;;
35917;SDS011;22011;59.912;30.300;2023-04-20T10:51:57;2.97;;;1.00;;
35917;SDS011;22011;59.912;30.300;2023-04-20T10:54:24;1.73;;;0.90;;
35917;SDS011;22011;59.912;30.300;2023-04-20T10:56:53;4.70;;;0.80;;
35917;SDS011;22011;59.912;30.300;2023-04-20T10:59:22;5.80;;;1.05;;
35917;SDS011;22011;59.912;30.300;2023-04-20T11:01:50;2.10;;;0.60;;
35917;SDS011;22011;59.912;30.300;2023-04-20T11:04:27;3.38;;;0.80;;
35917;SDS011;22011;59.912;30.300;2023-04-20T11:07:03;8.82;;;0.93;;
35917;SDS011;22011;59.912;30.300;2023-04-20T11:09:32;5.15;;;0.80;;
35917;SDS011;22011;59.912;30.300;2023-04-20T11:12:00;7.97;;;1.00;;
35917;SDS011;22011;59.912;30.300;2023-04-20T11:14:29;6.97;;;1.02;;
35917;SDS011;22011;59.912;30.300;2023-04-20T11:16:57;5.00;;;1.00;;
35917;SDS011;22011;59.912;30.300;2023-04-20T11:19:25;7.82;;;1.05;;
35917;SDS011;22011;59.912;30.300;2023-04-20T11:21:55;8.20;;;0.77;;
35917;SDS011;22011;59.912;30.300;2023-04-20T11:24:24;3.73;;;0.90;;
35917;SDS011;22011;59.912;30.300;2023-04-20T11:26:52;9.50;;;1.55;;
35917;SDS011;22011;59.912;30.300;2023-04-20T11:29:28;2.50;;;0.80;;
35917;SDS011;22011;59.912;30.300;2023-04-20T11:31:58;3.10;;;1.48;;
35917;SDS011;22011;59.912;30.300;2023-04-20T11:34:26;6.28;;;1.05;;
35917;SDS011;22011;59.912;30.300;2023-04-20T11:36:55;6.40;;;1.20;;
35917;SDS011;22011;59.912;30.300;2023-04-20T11:39:24;4.55;;;1.60;;
35917;SDS011;22011;59.912;30.300;2023-04-20T11:41:53;5.45;;;1.38;;
35917;SDS011;22011;59.912;30.300;2023-04-20T11:44:21;6.50;;;1.33;;
35917;SDS011;22011;59.912;30.300;2023-04-20T11:46:49;6.80;;;1.27;;
35917;SDS011;22011;59.912;30.300;2023-04-20T11:49:18;6.40;;;1.20;;
35917;SDS011;22011;59.912;30.300;2023-04-20T11:51:46;7.63;;;1.65;;
35917;SDS011;22011;59.912;30.300;2023-04-20T11:54:15;9.95;;;1.38;;
35917;SDS011;22011;59.912;30.300;2023-04-20T11:56:44;7.60;;;1.17;;
35917;SDS011;22011;59.912;30.300;2023-04-20T11:59:12;8.77;;;1.30;;
35917;SDS011;22011;59.912;30.300;2023-04-20T12:01:41;12.95;;;1.10;;
35917;SDS011;22011;59.912;30.300;2023-04-20T12:04:08;6.35;;;1.20;;
35917;SDS011;22011;59.912;30.300;2023-04-20T12:06:36;3.03;;;0.90;;
35917;SDS011;22011;59.912;30.300;2023-04-20T12:09:04;7.00;;;0.98;;
35917;SDS011;22011;59.912;30.300;2023-04-20T12:11:33;7.13;;;0.85;;
35917;SDS011;22011;59.912;30.300;2023-04-20T12:14:00;13.90;;;1.17;;
35917;SDS011;22011;59.912;30.300;2023-04-20T12:16:29;10.70;;;1.08;;
35917;SDS011;22011;59.912;30.300;2023-04-20T12:18:57;5.68;;;1.20;;
35917;SDS011;22011;59.912;30.300;2023-04-20T12:21:24;7.22;;;1.20;;
35917;SDS011;22011;59.912;30.300;2023-04-20T12:23:52;4.50;;;1.15;;
35917;SDS011;22011;59.912;30.300;2023-04-20T12:26:19;5.82;;;0.93;;
35917;SDS011;22011;59.912;30.300;2023-04-20T12:28:48;5.65;;;1.10;;
35917;SDS011;22011;59.912;30.300;2023-04-20T12:31:16;2.42;;;1.00;;
35917;SDS011;22011;59.912;30.300;2023-04-20T12:33:44;1.38;;;0.98;;
35917;SDS011;22011;59.912;30.300;2023-04-20T12:36:11;5.72;;;0.82;;
35917;SDS011;22011;59.912;30.300;2023-04-20T12:38:38;4.10;;;1.10;;
35917;SDS011;22011;59.912;30.300;2023-04-20T12:41:06;2.30;;;1.38;;
35917;SDS011;22011;59.912;30.300;2023-04-20T12:43:33;7.10;;;1.30;;
35917;SDS011;22011;59.912;30.300;2023-04-20T12:46:02;1.48;;;0.98;;
35917;SDS011;22011;59.912;30.300;2023-04-20T12:48:30;2.00;;;1.00;;
35917;SDS011;22011;59.912;30.300;2023-04-20T12:50:57;3.15;;;1.13;;
35917;SDS011;22011;59.912;30.300;2023-04-20T12:53:25;4.45;;;0.70;;
35917;SDS011;22011;59.912;30.300;2023-04-20T12:55:52;2.58;;;1.02;;
35917;SDS011;22011;59.912;30.300;2023-04-20T12:58:20;2.13;;;0.90;;
35917;SDS011;22011;59.912;30.300;2023-04-20T13:00:47;2.15;;;1.20;;
35917;SDS011;22011;59.912;30.300;2023-04-20T13:03:16;4.47;;;0.80;;
35917;SDS011;22011;59.912;30.300;2023-04-20T13:05:43;3.15;;;0.80;;
35917;SDS011;22011;59.912;30.300;2023-04-20T13:08:11;1.45;;;0.88;;
35917;SDS011;22011;59.912;30.300;2023-04-20T13:10:39;2.55;;;0.93;;
35917;SDS011;22011;59.912;30.300;2023-04-20T13:13:07;1.42;;;0.73;;
35917;SDS011;22011;59.912;30.300;2023-04-20T13:15:35;1.77;;;0.80;;
35917;SDS011;22011;59.912;30.300;2023-04-20T13:18:02;3.95;;;1.10;;
35917;SDS011;22011;59.912;30.300;2023-04-20T13:20:32;4.10;;;1.17;;
35917;SDS011;22011;59.912;30.300;2023-04-20T13:22:59;1.65;;;0.93;;
35917;SDS011;22011;59.912;30.300;2023-04-20T13:25:29;3.40;;;0.80;;
35917;SDS011;22011;59.912;30.300;2023-04-20T13:27:58;1.33;;;0.90;;
35917;SDS011;22011;59.912;30.300;2023-04-20T13:30:27;5.40;;;1.10;;
35917;SDS011;22011;59.912;30.300;2023-04-20T13:32:54;2.90;;;0.60;;
35917;SDS011;22011;59.912;30.300;2023-04-20T13:35:22;2.33;;;0.90;;
35917;SDS011;22011;59.912;30.300;2023-04-20T13:37:51;1.83;;;0.88;;
35917;SDS011;22011;59.912;30.300;2023-04-20T13:40:18;1.73;;;0.73;;
35917;SDS011;22011;59.912;30.300;2023-04-20T13:42:46;1.42;;;0.60;;
35917;SDS011;22011;59.912;30.300;2023-04-20T13:45:14;3.30;;;0.68;;
35917;SDS011;22011;59.912;30.300;2023-04-20T13:47:42;1.10;;;0.68;;
35917;SDS011;22011;59.912;30.300;2023-04-20T13:50:09;0.75;;;0.63;;
35917;SDS011;22011;59.912;30.300;2023-04-20T13:52:37;0.40;;;0.40;;
35917;SDS011;22011;59.912;30.300;2023-04-20T13:55:06;4.95;;;0.63;;
35917;SDS011;22011;59.912;30.300;2023-04-20T13:57:34;3.45;;;0.57;;
35917;SDS011;22011;59.912;30.300;2023-04-20T14:00:02;1.35;;;0.70;;
35917;SDS011;22011;59.912;30.300;2023-04-20T14:02:31;1.63;;;0.70;;
35917;SDS011;22011;59.912;30.300;2023-04-20T14:04:58;2.85;;;0.60;;
35917;SDS011;22011;59.912;30.300;2023-04-20T14:07:28;0.95;;;0.63;;
35917;SDS011;22011;59.912;30.300;2023-04-20T14:09:56;2.30;;;0.77;;
35917;SDS011;22011;59.912;30.300;2023-04-20T14:12:26;0.60;;;0.60;;
35917;SDS011;22011;59.912;30.300;2023-04-20T14:14:55;1.20;;;0.68;;
35917;SDS011;22011;59.912;30.300;2023-04-20T14:17:24;3.08;;;0.80;;
35917;SDS011;22011;59.912;30.300;2023-04-20T14:19:51;2.83;;;0.90;;
35917;SDS011;22011;59.912;30.300;2023-04-20T14:22:19;3.65;;;1.08;;
35917;SDS011;22011;59.912;30.300;2023-04-20T14:24:46;1.85;;;0.68;;
35917;SDS011;22011;59.912;30.300;2023-04-20T14:27:14;1.90;;;0.60;;
35917;SDS011;22011;59.912;30.300;2023-04-20T14:29:43;5.07;;;0.90;;
35917;SDS011;22011;59.912;30.300;2023-04-20T14:32:11;2.90;;;1.17;;
35917;SDS011;22011;59.912;30.300;2023-04-20T14:34:38;2.63;;;0.98;;
35917;SDS011;22011;59.912;30.300;2023-04-20T14:37:06;1.55;;;0.90;;
35917;SDS011;22011;59.912;30.300;2023-04-20T14:39:34;4.60;;;0.93;;
35917;SDS011;22011;59.912;30.300;2023-04-20T14:42:02;12.32;;;1.38;;
35917;SDS011;22011;59.912;30.300;2023-04-20T14:44:29;3.25;;;1.00;;
35917;SDS011;22011;59.912;30.300;2023-04-20T14:46:58;2.30;;;0.90;;
35917;SDS011;22011;59.912;30.300;2023-04-20T14:49:26;6.35;;;1.13;;